createdAt,value
2022-12-02T00:02:20.258Z,98883.53
2022-12-02T00:04:56.063Z,98877.56
2022-12-02T00:07:23.902Z,98875.97
2022-12-02T00:09:51.911Z,98880.44
2022-12-02T00:12:26.562Z,98879.50
2022-12-02T00:15:33.739Z,98878.47
2022-12-02T00:18:00.876Z,98872.97
2022-12-02T00:20:28.289Z,98872.13
2022-12-02T00:22:55.692Z,98874.19
2022-12-02T00:25:23.105Z,98869.88
2022-12-02T00:27:50.284Z,98876.84
2022-12-02T00:30:17.827Z,98865.63
2022-12-02T00:32:44.985Z,98860.84
2022-12-02T00:35:12.465Z,98859.88
2022-12-02T00:37:39.662Z,98864.06
2022-12-02T00:40:08.139Z,98863.69
2022-12-02T00:42:35.428Z,98860.72
2022-12-02T00:45:21.796Z,98868.44
2022-12-02T00:47:49.034Z,98861.47
2022-12-02T00:50:16.583Z,98858.66
2022-12-02T00:52:43.759Z,98855.31
2022-12-02T00:55:11.228Z,98850.41
2022-12-02T00:57:39.357Z,98858.41
2022-12-02T01:00:09.598Z,98848.84
2022-12-02T01:02:37.440Z,98858.13
2022-12-02T01:05:06.351Z,98849.69
2022-12-02T01:07:33.622Z,98849.59
2022-12-02T01:10:01.153Z,98854.84
2022-12-02T01:12:28.334Z,98848.19
2022-12-02T01:14:55.871Z,98849.06
2022-12-02T01:17:23.064Z,98847.06
2022-12-02T01:19:50.671Z,98847.84
2022-12-02T01:22:17.816Z,98844.31
2022-12-02T01:24:45.240Z,98851.00
2022-12-02T01:27:12.612Z,98844.28
2022-12-02T01:29:40.074Z,98849.41
2022-12-02T01:32:07.455Z,98843.81
2022-12-02T01:34:34.950Z,98838.31
2022-12-02T01:37:02.206Z,98844.69
2022-12-02T01:39:29.732Z,98850.81
2022-12-02T01:41:57.140Z,98845.53
2022-12-02T01:44:24.906Z,98843.88
2022-12-02T01:46:52.429Z,98844.00
2022-12-02T01:49:20.388Z,98844.00
2022-12-02T01:51:47.957Z,98834.59
2022-12-02T01:54:15.597Z,98842.25
2022-12-02T01:56:43.507Z,98840.50
2022-12-02T01:59:14.689Z,98842.81
2022-12-02T02:01:42.431Z,98843.63
2022-12-02T02:04:12.192Z,98846.03
2022-12-02T02:06:46.682Z,98840.91
2022-12-02T02:09:14.894Z,98847.66
2022-12-02T02:11:42.545Z,98836.66
2022-12-02T02:14:13.601Z,98830.13
2022-12-02T02:16:41.408Z,98836.97
2022-12-02T02:19:14.404Z,98839.47
2022-12-02T02:21:49.453Z,98838.63
2022-12-02T02:24:16.971Z,98826.00
2022-12-02T02:26:44.186Z,98831.97
2022-12-02T02:29:11.809Z,98829.53
2022-12-02T02:31:39.160Z,98835.44
2022-12-02T02:34:06.923Z,98831.22
2022-12-02T02:36:34.946Z,98835.44
2022-12-02T02:39:03.183Z,98832.28
2022-12-02T02:41:30.857Z,98827.88
2022-12-02T02:43:58.388Z,98829.00
2022-12-02T02:46:25.788Z,98821.13
2022-12-02T02:48:54.287Z,98816.72
2022-12-02T02:51:22.188Z,98822.53
2022-12-02T02:53:50.410Z,98821.88
2022-12-02T02:56:18.561Z,98817.78
2022-12-02T02:58:46.071Z,98817.63
2022-12-02T03:01:21.221Z,98811.56
2022-12-02T03:04:00.969Z,98821.00
2022-12-02T03:06:31.119Z,98822.25
2022-12-02T03:09:00.612Z,98817.91
2022-12-02T03:11:28.652Z,98817.78
2022-12-02T03:13:57.660Z,98809.19
2022-12-02T03:16:27.060Z,98815.88
2022-12-02T03:18:57.066Z,98810.78
2022-12-02T03:21:26.552Z,98809.00
2022-12-02T03:23:58.426Z,98816.72
2022-12-02T03:26:26.239Z,98810.69
2022-12-02T03:28:56.000Z,98803.75
2022-12-02T03:31:24.682Z,98799.13
2022-12-02T03:33:53.093Z,98795.81
2022-12-02T03:36:20.862Z,98795.03
2022-12-02T03:38:51.953Z,98795.91
2022-12-02T03:41:21.063Z,98797.34
2022-12-02T03:43:48.557Z,98797.66
2022-12-02T03:46:16.176Z,98792.47
2022-12-02T03:48:45.053Z,98789.91
2022-12-02T03:51:14.044Z,98797.56
2022-12-02T03:53:42.146Z,98790.66
2022-12-02T03:56:10.984Z,98778.53
2022-12-02T03:58:53.287Z,98786.44
2022-12-02T04:01:22.574Z,98793.06
2022-12-02T04:03:50.078Z,98786.28
2022-12-02T04:06:17.302Z,98792.56
2022-12-02T04:08:44.875Z,98792.78
2022-12-02T04:11:12.088Z,98805.97
2022-12-02T04:13:39.588Z,98794.53
2022-12-02T04:16:07.167Z,98800.59
2022-12-02T04:18:34.781Z,98803.16
2022-12-02T04:21:02.272Z,98798.78
2022-12-02T04:23:29.682Z,98797.34
2022-12-02T04:25:56.851Z,98798.00
2022-12-02T04:28:24.296Z,98807.41
2022-12-02T04:30:51.519Z,98807.84
2022-12-02T04:33:19.140Z,98800.88
2022-12-02T04:35:46.717Z,98810.94
2022-12-02T04:38:14.674Z,98801.53
2022-12-02T04:40:41.958Z,98798.19
2022-12-02T04:43:09.435Z,98799.22
2022-12-02T04:45:37.137Z,98796.50
2022-12-02T04:48:05.349Z,98798.31
2022-12-02T04:50:32.496Z,98794.88
2022-12-02T04:52:59.960Z,98785.22
2022-12-02T04:55:27.266Z,98785.41
2022-12-02T04:57:54.762Z,98789.66
2022-12-02T05:00:22.096Z,98789.44
2022-12-02T05:02:49.707Z,98793.50
2022-12-02T05:05:17.010Z,98789.16
2022-12-02T05:07:44.486Z,98788.03
2022-12-02T05:10:11.740Z,98779.44
2022-12-02T05:12:39.397Z,98791.50
2022-12-02T05:15:07.569Z,98790.19
2022-12-02T05:17:39.148Z,98784.78
2022-12-02T05:20:09.735Z,98792.72
2022-12-02T05:22:37.221Z,98788.41
2022-12-02T05:25:06.359Z,98781.84
2022-12-02T05:27:35.777Z,98787.09
2022-12-02T05:30:05.694Z,98790.28
2022-12-02T05:32:33.363Z,98785.25
2022-12-02T05:35:00.676Z,98785.22
2022-12-02T05:37:28.234Z,98780.97
2022-12-02T05:39:55.588Z,98794.78
2022-12-02T05:42:23.088Z,98796.66
2022-12-02T05:44:50.256Z,98790.66
2022-12-02T05:47:18.980Z,98788.97
2022-12-02T05:49:47.134Z,98789.56
2022-12-02T05:52:28.415Z,98792.78
2022-12-02T05:55:00.765Z,98792.81
2022-12-02T05:57:31.463Z,98792.78
2022-12-02T06:00:23.605Z,98799.03
2022-12-02T06:02:59.237Z,98803.34
2022-12-02T06:05:41.508Z,98800.81
2022-12-02T06:08:21.992Z,98800.88
2022-12-02T06:11:21.599Z,98800.88
2022-12-02T06:13:49.102Z,98803.41
2022-12-02T06:16:25.932Z,98808.56
2022-12-02T06:18:54.525Z,98804.13
2022-12-02T06:21:23.245Z,98797.19
2022-12-02T06:23:55.877Z,98803.13
2022-12-02T06:26:23.368Z,98806.34
2022-12-02T06:29:03.502Z,98807.38
2022-12-02T06:31:42.901Z,98807.19
2022-12-02T06:34:39.702Z,98803.84
2022-12-02T06:37:28.990Z,98802.94
2022-12-02T06:40:27.416Z,98802.16
2022-12-02T06:42:47.013Z,98806.44
2022-12-02T06:45:14.732Z,98800.97
2022-12-02T06:48:33.075Z,98803.78
2022-12-02T06:51:26.651Z,98808.81
2022-12-02T06:53:53.803Z,98808.88
2022-12-02T06:56:31.052Z,98815.03
2022-12-02T06:59:06.290Z,98813.16
2022-12-02T07:01:38.986Z,98811.59
2022-12-02T07:04:09.113Z,98813.25
2022-12-02T07:06:46.564Z,98808.03
2022-12-02T07:09:22.261Z,98812.53
2022-12-02T07:11:55.389Z,98811.34
2022-12-02T07:14:47.542Z,98814.81
2022-12-02T07:17:28.631Z,98811.47
2022-12-02T07:20:15.553Z,98826.78
2022-12-02T07:22:48.795Z,98820.72
2022-12-02T07:25:54.354Z,98820.88
2022-12-02T07:28:41.272Z,98823.38
2022-12-02T07:31:20.167Z,98827.63
2022-12-02T07:33:48.489Z,98827.44
2022-12-02T07:36:15.867Z,98824.34
2022-12-02T07:39:05.223Z,98826.97
2022-12-02T07:41:36.230Z,98824.94
2022-12-02T07:44:05.900Z,98833.50
2022-12-02T07:46:33.361Z,98836.13
2022-12-02T07:49:00.873Z,98838.69
2022-12-02T07:51:28.063Z,98831.66
2022-12-02T07:53:56.729Z,98836.59
2022-12-02T07:56:23.966Z,98838.22
2022-12-02T08:01:38.769Z,98833.91
2022-12-02T08:04:06.340Z,98833.31
2022-12-02T08:06:39.087Z,98836.56
2022-12-02T08:09:09.405Z,98837.50
2022-12-02T08:11:37.179Z,98832.63
2022-12-02T08:14:05.161Z,98834.97
2022-12-02T08:16:32.545Z,98833.25
2022-12-02T08:19:01.337Z,98838.50
2022-12-02T08:21:29.128Z,98834.44
2022-12-02T08:23:56.655Z,98832.66
2022-12-02T08:26:24.055Z,98838.63
2022-12-02T08:28:54.238Z,98837.00
2022-12-02T08:31:22.176Z,98840.63
2022-12-02T08:33:50.609Z,98835.31
2022-12-02T08:36:18.511Z,98833.66
2022-12-02T08:38:46.305Z,98833.09
2022-12-02T08:41:15.787Z,98834.94
2022-12-02T08:43:43.642Z,98839.94
2022-12-02T08:46:11.879Z,98836.53
2022-12-02T08:48:39.414Z,98844.06
2022-12-02T08:51:06.969Z,98846.25
2022-12-02T08:53:34.556Z,98843.44
2022-12-02T08:56:02.023Z,98849.31
2022-12-02T08:58:29.476Z,98848.69
2022-12-02T09:00:56.666Z,98839.94
2022-12-02T09:03:24.099Z,98838.44
2022-12-02T09:05:51.318Z,98842.63
2022-12-02T09:08:18.820Z,98846.31
2022-12-02T09:10:46.485Z,98838.59
2022-12-02T09:13:14.103Z,98841.16
2022-12-02T09:15:41.459Z,98832.81
2022-12-02T09:18:14.046Z,98832.59
2022-12-02T09:20:42.704Z,98836.31
2022-12-02T09:23:10.273Z,98839.13
2022-12-02T09:25:37.645Z,98842.31
2022-12-02T09:28:05.296Z,98842.13
2022-12-02T09:30:32.508Z,98838.25
2022-12-02T09:33:00.173Z,98837.22
2022-12-02T09:35:27.369Z,98842.03
2022-12-02T09:37:55.159Z,98839.53
2022-12-02T09:40:23.320Z,98839.44
2022-12-02T09:42:51.709Z,98831.06
2022-12-02T09:45:19.262Z,98836.38
2022-12-02T09:47:46.985Z,98832.78
2022-12-02T09:50:17.244Z,98837.44
2022-12-02T09:52:46.363Z,98833.03
2022-12-02T09:55:20.384Z,98831.19
2022-12-02T09:57:48.048Z,98821.03
2022-12-02T10:00:20.105Z,98833.25
2022-12-02T10:02:51.986Z,98822.06
2022-12-02T10:05:25.053Z,98823.59
2022-12-02T10:07:57.244Z,98827.03
2022-12-02T10:10:37.306Z,98829.50
2022-12-02T10:13:07.983Z,98819.38
2022-12-02T10:15:35.725Z,98825.13
2022-12-02T10:18:15.371Z,98822.56
2022-12-02T10:20:42.687Z,98804.75
2022-12-02T10:23:19.296Z,98815.66
2022-12-02T10:25:49.710Z,98802.53
2022-12-02T10:28:31.181Z,98810.09
2022-12-02T10:31:08.207Z,98799.13
2022-12-02T10:33:50.213Z,98800.81
2022-12-02T10:36:42.074Z,98806.72
2022-12-02T10:39:26.309Z,98812.31
2022-12-02T10:42:07.890Z,98801.69
2022-12-02T10:44:39.861Z,98801.56
2022-12-02T10:47:26.182Z,98800.03
2022-12-02T10:49:59.820Z,98792.00
2022-12-02T10:52:35.380Z,98800.44
2022-12-02T10:55:05.279Z,98793.72
2022-12-02T10:57:34.989Z,98791.28
2022-12-02T11:00:17.082Z,98786.66
2022-12-02T11:02:52.513Z,98786.44
2022-12-02T11:05:27.901Z,98784.72
2022-12-02T11:08:19.777Z,98783.94
2022-12-02T11:11:05.915Z,98783.84
2022-12-02T11:13:56.105Z,98778.50
2022-12-02T11:16:29.817Z,98781.75
2022-12-02T11:19:08.703Z,98787.16
2022-12-02T11:21:42.812Z,98795.06
2022-12-02T11:24:27.943Z,98786.28
2022-12-02T11:27:02.746Z,98789.75
2022-12-02T11:29:35.884Z,98779.44
2022-12-02T11:32:27.703Z,98778.50
2022-12-02T11:35:17.095Z,98783.44
2022-12-02T11:37:48.204Z,98780.06
2022-12-02T11:40:18.361Z,98780.06
2022-12-02T11:42:46.490Z,98783.16
2022-12-02T11:45:22.587Z,98770.31
2022-12-02T11:48:01.093Z,98772.22
2022-12-02T11:50:39.213Z,98776.25
2022-12-02T11:53:23.664Z,98769.03
2022-12-02T11:55:54.848Z,98772.81
2022-12-02T11:58:35.112Z,98770.53
2022-12-02T12:01:19.863Z,98762.19
2022-12-02T12:03:51.159Z,98776.41
2022-12-02T12:06:25.891Z,98770.28
2022-12-02T12:08:57.093Z,98767.44
2022-12-02T12:11:28.631Z,98765.13
2022-12-02T12:14:11.889Z,98769.69
2022-12-02T12:16:48.587Z,98768.84
2022-12-02T12:19:16.330Z,98764.25
2022-12-02T12:21:55.196Z,98765.63
2022-12-02T12:24:23.629Z,98763.78
2022-12-02T12:26:58.244Z,98763.38
2022-12-02T12:29:36.228Z,98767.69
2022-12-02T12:32:06.154Z,98766.22
2022-12-02T12:34:34.553Z,98768.00
2022-12-02T12:37:02.106Z,98764.97
2022-12-02T12:39:29.729Z,98767.03
2022-12-02T12:42:01.475Z,98756.75
2022-12-02T12:44:32.584Z,98764.66
2022-12-02T12:47:03.532Z,98765.31
2022-12-02T12:49:32.242Z,98767.66
2022-12-02T12:52:00.135Z,98762.38
2022-12-02T12:54:27.970Z,98757.88
2022-12-02T12:56:55.572Z,98768.28
2022-12-02T12:59:23.060Z,98766.09
2022-12-02T13:01:50.421Z,98758.97
2022-12-02T13:04:18.023Z,98760.91
2022-12-02T13:06:47.085Z,98753.31
2022-12-02T13:09:15.778Z,98758.66
2022-12-02T13:11:43.499Z,98752.81
2022-12-02T13:14:10.958Z,98758.81
2022-12-02T13:16:38.300Z,98757.69
2022-12-02T13:19:10.844Z,98754.50
2022-12-02T13:21:38.232Z,98755.34
2022-12-02T13:24:11.162Z,98753.66
2022-12-02T13:26:38.425Z,98757.00
2022-12-02T13:29:05.897Z,98755.75
2022-12-02T13:31:33.392Z,98752.31
2022-12-02T13:34:00.932Z,98753.03
2022-12-02T13:36:28.199Z,98754.53
2022-12-02T13:38:56.328Z,98746.88
2022-12-02T13:41:24.966Z,98749.44
2022-12-02T13:43:52.473Z,98760.53
2022-12-02T13:46:19.707Z,98761.44
2022-12-02T13:48:47.231Z,98765.53
2022-12-02T13:51:14.416Z,98759.84
2022-12-02T13:53:43.588Z,98765.28
2022-12-02T13:56:10.787Z,98766.41
2022-12-02T13:58:38.225Z,98770.56
2022-12-02T14:01:05.454Z,98774.84
2022-12-02T14:03:33.138Z,98772.50
2022-12-02T14:06:00.361Z,98771.66
2022-12-02T14:08:27.835Z,98768.91
2022-12-02T14:10:55.029Z,98782.66
2022-12-02T14:13:22.551Z,98776.72
2022-12-02T14:15:49.978Z,98774.97
2022-12-02T14:18:17.729Z,98773.28
2022-12-02T14:20:45.128Z,98775.81
2022-12-02T14:23:13.676Z,98782.78
2022-12-02T14:25:40.818Z,98783.66
2022-12-02T14:28:08.696Z,98782.03
2022-12-02T14:30:35.988Z,98778.47
2022-12-02T14:33:03.522Z,98773.47
2022-12-02T14:35:30.786Z,98782.81
2022-12-02T14:37:58.374Z,98770.06
2022-12-02T14:40:28.309Z,98780.97
2022-12-02T14:42:56.103Z,98767.78
2022-12-02T14:45:23.931Z,98773.44
2022-12-02T14:47:51.494Z,98776.97
2022-12-02T14:50:18.978Z,98775.19
2022-12-02T14:52:46.572Z,98776.91
2022-12-02T14:55:13.714Z,98773.53
2022-12-02T14:57:42.130Z,98782.88
2022-12-02T15:00:13.246Z,98782.19
2022-12-02T15:02:41.075Z,98778.59
2022-12-02T15:05:14.206Z,98788.88
2022-12-02T15:07:42.375Z,98792.59
2022-12-02T15:10:11.308Z,98788.34
2022-12-02T15:12:39.284Z,98786.84
2022-12-02T15:17:55.436Z,98781.75
2022-12-02T15:20:24.000Z,98781.78
2022-12-02T15:22:51.461Z,98775.75
2022-12-02T15:25:19.102Z,98775.84
2022-12-02T15:27:46.987Z,98773.44
2022-12-02T15:30:14.936Z,98783.81
2022-12-02T15:32:42.968Z,98782.59
2022-12-02T15:35:10.736Z,98783.28
2022-12-02T15:37:38.283Z,98787.97
2022-12-02T15:40:07.503Z,98786.31
2022-12-02T15:42:34.989Z,98783.84
2022-12-02T15:45:02.231Z,98784.59
2022-12-02T15:47:29.707Z,98775.31
2022-12-02T15:49:56.970Z,98784.44
2022-12-02T15:52:24.580Z,98787.72
2022-12-02T15:54:51.936Z,98785.22
2022-12-02T15:57:19.753Z,98786.84
2022-12-02T15:59:47.063Z,98794.59
2022-12-02T16:02:14.598Z,98792.84
2022-12-02T16:04:41.940Z,98802.38
2022-12-02T16:07:09.588Z,98798.31
2022-12-02T16:09:36.808Z,98796.50
2022-12-02T16:12:04.817Z,98798.13
2022-12-02T16:14:32.006Z,98803.44
2022-12-02T16:16:59.692Z,98806.31
2022-12-02T16:19:26.927Z,98808.09
2022-12-02T16:21:54.402Z,98802.06
2022-12-02T16:24:21.656Z,98803.91
2022-12-02T16:26:55.068Z,98802.31
2022-12-02T16:29:22.857Z,98804.53
2022-12-02T16:31:50.513Z,98798.25
2022-12-02T16:34:17.718Z,98800.13
2022-12-02T16:36:45.320Z,98800.06
2022-12-02T16:39:12.552Z,98800.81
2022-12-02T16:41:40.068Z,98806.16
2022-12-02T16:44:07.448Z,98814.09
2022-12-02T16:46:36.805Z,98808.94
2022-12-02T16:49:06.219Z,98803.38
2022-12-02T16:51:33.637Z,98803.38
2022-12-02T16:54:00.836Z,98811.09
2022-12-02T16:56:28.534Z,98810.44
2022-12-02T16:58:55.967Z,98817.94
2022-12-02T17:01:23.539Z,98815.38
2022-12-02T17:03:50.753Z,98816.16
2022-12-02T17:06:18.196Z,98811.81
2022-12-02T17:08:46.538Z,98814.28
2022-12-02T17:11:16.417Z,98815.97
2022-12-02T17:13:45.188Z,98816.09
2022-12-02T17:16:12.903Z,98817.63
2022-12-02T17:18:40.140Z,98828.66
2022-12-02T17:21:07.661Z,98824.53
2022-12-02T17:23:35.095Z,98823.56
2022-12-02T17:26:02.884Z,98825.59
2022-12-02T17:28:30.144Z,98822.06
2022-12-02T17:30:57.648Z,98820.31
2022-12-02T17:33:24.864Z,98826.91
2022-12-02T17:35:53.377Z,98826.97
2022-12-02T17:38:20.780Z,98824.25
2022-12-02T17:40:48.226Z,98830.25
2022-12-02T17:43:15.465Z,98833.88
2022-12-02T17:45:42.955Z,98830.31
2022-12-02T17:48:10.242Z,98829.47
2022-12-02T17:50:37.676Z,98824.66
2022-12-02T17:53:05.111Z,98823.91
2022-12-02T17:55:32.532Z,98831.44
2022-12-02T17:57:59.685Z,98829.81
2022-12-02T18:00:27.303Z,98841.78
2022-12-02T18:02:54.581Z,98833.34
2022-12-02T18:05:22.073Z,98830.91
2022-12-02T18:07:49.301Z,98827.22
2022-12-02T18:10:16.910Z,98829.94
2022-12-02T18:12:44.173Z,98829.72
2022-12-02T18:15:15.406Z,98830.47
2022-12-02T18:17:43.219Z,98830.63
2022-12-02T18:20:12.118Z,98829.72
2022-12-02T18:22:40.119Z,98827.78
2022-12-02T18:25:08.250Z,98832.91
2022-12-02T18:27:35.460Z,98828.13
2022-12-02T18:30:03.914Z,98836.50
2022-12-02T18:32:31.163Z,98834.00
2022-12-02T18:34:58.639Z,98837.31
2022-12-02T18:37:25.855Z,98838.94
2022-12-02T18:39:53.376Z,98836.41
2022-12-02T18:42:20.957Z,98833.06
2022-12-02T18:44:48.541Z,98838.19
2022-12-02T18:47:16.056Z,98833.09
2022-12-02T18:49:43.552Z,98830.47
2022-12-02T18:52:11.413Z,98832.16
2022-12-02T18:54:39.451Z,98829.50
2022-12-02T18:57:06.702Z,98832.13
2022-12-02T18:59:34.300Z,98842.63
2022-12-02T19:02:01.922Z,98833.72
2022-12-02T19:04:29.504Z,98828.53
2022-12-02T19:06:56.770Z,98829.19
2022-12-02T19:09:24.277Z,98826.53
2022-12-02T19:11:51.449Z,98832.56
2022-12-02T19:14:18.938Z,98830.94
2022-12-02T19:16:46.499Z,98829.16
2022-12-02T19:19:13.969Z,98827.97
2022-12-02T19:21:41.220Z,98831.00
2022-12-02T19:24:09.037Z,98825.91
2022-12-02T19:26:36.291Z,98829.47
2022-12-02T19:29:03.898Z,98834.63
2022-12-02T19:31:32.185Z,98836.88
2022-12-02T19:33:59.913Z,98841.31
2022-12-02T19:36:27.095Z,98839.59
2022-12-02T19:38:54.822Z,98837.03
2022-12-02T19:41:22.072Z,98837.94
2022-12-02T19:43:49.664Z,98838.88
2022-12-02T19:46:17.075Z,98837.97
2022-12-02T19:48:44.660Z,98834.44
2022-12-02T19:51:11.935Z,98825.06
2022-12-02T19:53:39.452Z,98833.63
2022-12-02T19:56:06.851Z,98834.53
2022-12-02T19:58:34.444Z,98830.13
2022-12-02T20:01:01.676Z,98824.84
2022-12-02T20:03:29.261Z,98825.13
2022-12-02T20:06:00.645Z,98820.22
2022-12-02T20:08:29.309Z,98827.84
2022-12-02T20:10:56.665Z,98823.47
2022-12-02T20:13:24.531Z,98819.19
2022-12-02T20:15:56.714Z,98824.28
2022-12-02T20:18:26.753Z,98822.34
2022-12-02T20:20:54.148Z,98817.09
2022-12-02T20:23:22.000Z,98824.78
2022-12-02T20:25:49.322Z,98818.81
2022-12-02T20:28:16.941Z,98824.78
2022-12-02T20:30:44.247Z,98811.84
2022-12-02T20:33:11.888Z,98817.97
2022-12-02T20:35:39.264Z,98816.31
2022-12-02T20:38:06.817Z,98813.72
2022-12-02T20:40:34.132Z,98815.59
2022-12-02T20:43:01.708Z,98808.66
2022-12-02T20:45:29.015Z,98806.34
2022-12-02T20:47:56.639Z,98810.38
2022-12-02T20:50:23.866Z,98810.28
2022-12-02T20:52:54.034Z,98814.44
2022-12-02T20:55:21.893Z,98814.56
2022-12-02T20:57:49.487Z,98811.78
2022-12-02T21:00:17.924Z,98812.59
2022-12-02T21:02:45.497Z,98811.81
2022-12-02T21:05:12.920Z,98815.78
2022-12-02T21:07:40.498Z,98821.72
2022-12-02T21:10:08.812Z,98822.41
2022-12-02T21:12:36.379Z,98819.84
2022-12-02T21:15:04.363Z,98818.81
2022-12-02T21:17:32.404Z,98816.19
2022-12-02T21:19:59.640Z,98810.97
2022-12-02T21:22:27.175Z,98814.41
2022-12-02T21:24:54.714Z,98811.09
2022-12-02T21:27:22.452Z,98811.94
2022-12-02T21:29:49.757Z,98813.78
2022-12-02T21:32:17.457Z,98812.00
2022-12-02T21:34:44.801Z,98807.91
2022-12-02T21:37:12.192Z,98811.50
2022-12-02T21:39:39.456Z,98816.13
2022-12-02T21:42:06.968Z,98813.50
2022-12-02T21:44:34.377Z,98808.53
2022-12-02T21:47:01.973Z,98810.03
2022-12-02T21:49:29.309Z,98817.19
2022-12-02T21:51:56.875Z,98804.81
2022-12-02T21:54:24.464Z,98817.75
2022-12-02T21:56:52.003Z,98810.00
2022-12-02T21:59:19.235Z,98816.97
2022-12-02T22:01:46.765Z,98818.69
2022-12-02T22:04:17.971Z,98816.81
2022-12-02T22:06:45.860Z,98816.00
2022-12-02T22:09:13.154Z,98814.28
2022-12-02T22:11:41.163Z,98801.44
2022-12-02T22:14:08.424Z,98809.28
2022-12-02T22:16:36.088Z,98809.94
2022-12-02T22:19:03.404Z,98810.13
2022-12-02T22:21:30.968Z,98814.22
2022-12-02T22:23:58.212Z,98817.69
2022-12-02T22:26:25.654Z,98814.25
2022-12-02T22:28:52.867Z,98819.34
2022-12-02T22:31:20.376Z,98820.25
2022-12-02T22:33:47.653Z,98809.00
2022-12-02T22:36:15.187Z,98814.78
2022-12-02T22:38:42.391Z,98818.84
2022-12-02T22:41:09.912Z,98811.97
2022-12-02T22:43:37.161Z,98809.34
2022-12-02T22:46:04.857Z,98811.94
2022-12-02T22:48:32.122Z,98817.31
2022-12-02T22:50:59.638Z,98810.44
2022-12-02T22:53:26.910Z,98808.75
2022-12-02T22:55:54.442Z,98798.63
2022-12-02T22:58:21.684Z,98802.06
2022-12-02T23:00:49.188Z,98801.91
2022-12-02T23:03:16.536Z,98795.97
2022-12-02T23:05:44.018Z,98798.63
2022-12-02T23:08:11.373Z,98802.09
2022-12-02T23:10:38.899Z,98791.09
2022-12-02T23:13:06.290Z,98792.72
2022-12-02T23:15:37.108Z,98801.22
2022-12-02T23:18:07.207Z,98792.78
2022-12-02T23:20:36.346Z,98800.31
2022-12-02T23:23:04.332Z,98810.47
2022-12-02T23:25:32.048Z,98810.50
2022-12-02T23:27:59.395Z,98817.13
2022-12-02T23:30:29.301Z,98818.81
2022-12-02T23:32:59.338Z,98820.22
2022-12-02T23:35:28.258Z,98820.09
2022-12-02T23:37:56.238Z,98821.88
2022-12-02T23:40:23.847Z,98833.06
2022-12-02T23:42:51.342Z,98822.75
2022-12-02T23:45:18.643Z,98819.16
2022-12-02T23:47:46.330Z,98819.84
2022-12-02T23:50:13.767Z,98819.00
2022-12-02T23:52:41.339Z,98819.91
2022-12-02T23:55:10.725Z,98813.06
2022-12-02T23:57:38.327Z,98811.53
